Time;durP1;ratioP1;P1;durP2;ratioP2;P2;SDS_P1;SDS_P2;PMS_P1;PMS_P2;Temp;Humidity;BMP_temperature;BMP_pressure;BME280_temperature;BME280_humidity;BME280_pressure;Samples;Min_cycle;Max_cycle;Signal;HPM_P1;HPM_P2
2023/03/01 00:01:22;;;;;;;10.97;7.63;;;2.50;1.00;;;;;;4912462;29;20256;-96
2023/03/01 00:03:50;;;;;;;16.03;8.10;;;2.60;1.00;;;;;;4923695;29;20154;-91
2023/03/01 00:06:25;;;;;;;9.43;8.00;;;2.60;1.00;;;;;;4959023;28;20162;-91
2023/03/01 00:08:54;;;;;;;9.80;7.87;;;2.60;1.00;;;;;;4954516;29;20220;-94
2023/03/01 00:11:27;;;;;;;10.53;8.83;;;2.60;1.00;;;;;;4953561;29;20188;-94
2023/03/01 00:13:58;;;;;;;11.00;8.37;;;2.60;1.00;;;;;;4937679;29;20185;-95
2023/03/01 00:16:27;;;;;;;10.80;8.00;;;2.70;1.00;;;;;;4956696;29;20152;-92
2023/03/01 00:18:59;;;;;;;10.57;7.53;;;2.70;1.00;;;;;;4937005;29;20645;-93
2023/03/01 00:21:28;;;;;;;8.47;7.57;;;2.60;29.20;;;;;;4937346;29;20177;-93
2023/03/01 00:23:54;;;;;;;10.30;7.43;;;2.50;8.10;;;;;;4951692;29;20236;-96
2023/03/01 00:26:23;;;;;;;10.63;8.63;;;2.60;71.40;;;;;;4929056;29;20672;-95
2023/03/01 00:28:51;;;;;;;9.23;7.13;;;2.70;42.40;;;;;;4924674;29;20213;-96
2023/03/01 00:31:23;;;;;;;8.50;7.60;;;2.80;1.00;;;;;;4926429;29;20178;-96
2023/03/01 00:33:58;;;;;;;8.57;7.27;;;2.60;29.80;;;;;;4951834;28;20196;-95
2023/03/01 00:36:37;;;;;;;11.93;7.93;;;2.60;74.40;;;;;;4912107;29;20194;-96
2023/03/01 00:39:07;;;;;;;8.73;6.97;;;2.50;53.10;;;;;;4900263;29;20189;-95
2023/03/01 00:41:56;;;;;;;8.20;6.97;;;2.70;58.50;;;;;;4901982;29;20643;-96
2023/03/01 00:44:22;;;;;;;9.27;7.77;;;2.40;22.30;;;;;;4889606;29;20197;-93
2023/03/01 00:46:47;;;;;;;11.07;7.27;;;2.40;99.90;;;;;;4908561;29;20241;-95
2023/03/01 00:49:20;;;;;;;8.73;7.20;;;2.30;99.90;;;;;;4918455;29;20308;-90
2023/03/01 00:51:45;;;;;;;11.20;7.37;;;2.30;99.90;;;;;;4926553;29;20205;-96
2023/03/01 00:54:11;;;;;;;9.43;7.17;;;2.30;99.90;;;;;;4935251;29;20244;-95
2023/03/01 00:56:37;;;;;;;9.27;6.93;;;2.40;99.90;;;;;;4943968;29;20188;-87
2023/03/01 00:59:02;;;;;;;8.80;7.63;;;2.20;99.90;;;;;;4935634;29;20184;-96
2023/03/01 01:01:30;;;;;;;10.43;7.67;;;2.20;99.90;;;;;;4923645;29;20194;-94
2023/03/01 01:04:03;;;;;;;9.33;6.60;;;2.20;99.90;;;;;;4925624;29;20182;-94
2023/03/01 01:06:38;;;;;;;8.33;6.80;;;2.20;99.90;;;;;;4936958;29;20189;-88
2023/03/01 01:09:07;;;;;;;10.03;7.80;;;2.10;99.90;;;;;;4943724;29;20239;-96
2023/03/01 01:11:41;;;;;;;9.57;6.80;;;2.20;99.90;;;;;;4934898;29;20181;-96
2023/03/01 01:14:09;;;;;;;9.23;7.20;;;2.00;99.90;;;;;;4930040;29;20192;-95
2023/03/01 01:16:36;;;;;;;10.90;7.70;;;2.10;99.90;;;;;;4937678;29;20142;-94
2023/03/01 01:19:04;;;;;;;9.57;6.87;;;2.00;99.90;;;;;;4943209;29;20209;-94
2023/03/01 01:21:30;;;;;;;10.17;6.93;;;2.10;99.90;;;;;;4938640;29;20206;-93
2023/03/01 01:23:56;;;;;;;9.20;6.87;;;2.10;99.90;;;;;;4950980;29;20189;-93
2023/03/01 01:26:26;;;;;;;10.20;7.10;;;2.00;99.90;;;;;;4949812;29;20177;-96
2023/03/01 01:28:52;;;;;;;8.17;7.27;;;2.10;99.90;;;;;;4936049;29;20216;-95
2023/03/01 01:31:24;;;;;;;7.73;6.93;;;2.10;99.90;;;;;;4907599;29;20189;-86
2023/03/01 01:33:52;;;;;;;9.70;7.53;;;2.00;99.90;;;;;;4924071;29;20230;-95
2023/03/01 01:36:18;;;;;;;9.57;7.07;;;2.00;99.90;;;;;;4934043;29;20220;-95
2023/03/01 01:38:43;;;;;;;11.87;8.87;;;2.00;99.90;;;;;;4941579;29;20228;-96
2023/03/01 01:41:18;;;;;;;9.57;7.10;;;2.00;99.90;;;;;;4941810;29;20222;-93
2023/03/01 01:43:47;;;;;;;12.17;7.60;;;2.10;99.90;;;;;;4914394;29;20197;-96
2023/03/01 01:46:31;;;;;;;9.27;6.97;;;2.00;99.90;;;;;;4915467;29;20198;-90
2023/03/01 01:49:04;;;;;;;10.93;7.07;;;2.00;99.90;;;;;;4922167;29;20239;-96
2023/03/01 01:51:43;;;;;;;8.77;7.00;;;1.90;99.90;;;;;;4922762;29;20197;-92
2023/03/01 01:54:16;;;;;;;9.00;7.43;;;2.00;99.90;;;;;;4939291;29;20173;-93
2023/03/01 01:56:48;;;;;;;9.53;7.60;;;2.00;99.90;;;;;;4948306;29;20169;-85
2023/03/01 01:59:14;;;;;;;10.80;7.50;;;2.10;99.90;;;;;;4962266;28;20177;-87
2023/03/01 02:01:44;;;;;;;12.00;7.27;;;2.00;99.90;;;;;;4960203;28;20193;-85
2023/03/01 02:04:10;;;;;;;11.33;7.53;;;1.90;99.90;;;;;;4959115;28;20177;-90
2023/03/01 02:06:51;;;;;;;11.57;7.67;;;2.00;99.90;;;;;;4940319;29;20186;-96
2023/03/01 02:09:26;;;;;;;10.23;7.80;;;1.90;99.90;;;;;;4926155;29;20270;-86
2023/03/01 02:11:54;;;;;;;9.43;7.40;;;1.90;99.90;;;;;;4930948;29;20165;-83
2023/03/01 02:14:19;;;;;;;9.30;7.10;;;1.90;1.00;;;;;;4939534;29;20240;-90
2023/03/01 02:16:46;;;;;;;9.50;7.53;;;2.00;99.90;;;;;;4939208;29;20578;-93
2023/03/01 02:19:40;;;;;;;9.53;7.83;;;2.10;1.00;;;;;;4930248;29;20185;-88
2023/03/01 02:22:23;;;;;;;10.00;7.70;;;1.90;1.00;;;;;;4933406;29;20178;-93
2023/03/01 02:25:32;;;;;;;8.67;6.87;;;1.80;1.00;;;;;;4941422;29;20197;-89
2023/03/01 02:28:13;;;;;;;9.03;7.00;;;1.70;1.00;;;;;;4941208;29;20192;-89
2023/03/01 02:33:38;;;;;;;8.50;6.97;;;1.70;1.00;;;;;;4923129;29;20263;-95
2023/03/01 02:36:09;;;;;;;9.17;7.37;;;1.60;1.00;;;;;;4918834;29;20211;-96
2023/03/01 02:38:35;;;;;;;9.83;6.83;;;1.80;1.00;;;;;;4939639;29;20184;-95
2023/03/01 02:41:04;;;;;;;10.07;7.33;;;1.60;1.00;;;;;;4959335;29;20166;-87
2023/03/01 02:43:32;;;;;;;12.00;7.67;;;1.70;1.00;;;;;;4949877;28;20182;-87
2023/03/01 02:46:04;;;;;;;9.73;7.00;;;1.60;1.00;;;;;;4919625;29;20182;-95
2023/03/01 02:48:48;;;;;;;8.93;7.20;;;1.60;1.00;;;;;;4926378;29;20249;-94
2023/03/01 02:51:48;;;;;;;10.50;7.63;;;1.60;1.00;;;;;;4921747;29;20154;-95
2023/03/01 02:54:16;;;;;;;10.47;7.67;;;1.60;1.00;;;;;;4921238;29;20177;-92
2023/03/01 02:56:43;;;;;;;10.10;7.57;;;1.60;1.00;;;;;;4921945;29;20232;-96
2023/03/01 02:59:10;;;;;;;11.50;7.73;;;1.70;1.00;;;;;;4932676;29;20170;-96
2023/03/01 03:01:41;;;;;;;10.60;7.67;;;1.60;1.00;;;;;;4925606;29;20173;-96
2023/03/01 03:04:10;;;;;;;12.07;8.07;;;1.60;1.00;;;;;;4922165;29;20268;-95
2023/03/01 03:06:37;;;;;;;8.63;6.90;;;1.50;1.00;;;;;;4929852;29;20185;-96
2023/03/01 03:09:04;;;;;;;8.67;7.60;;;1.40;1.00;;;;;;4940881;29;20213;-93
2023/03/01 03:11:30;;;;;;;10.87;7.50;;;1.50;1.00;;;;;;4943185;29;20233;-96
2023/03/01 03:13:57;;;;;;;9.67;7.90;;;1.50;1.00;;;;;;4943569;29;20635;-92
2023/03/01 03:16:24;;;;;;;9.30;8.00;;;1.40;1.00;;;;;;4944380;29;20201;-96
2023/03/01 03:18:50;;;;;;;11.20;7.53;;;1.40;1.00;;;;;;4933356;29;20182;-95
2023/03/01 03:21:16;;;;;;;10.10;7.70;;;1.40;1.00;;;;;;4934051;29;20177;-90
2023/03/01 03:23:42;;;;;;;9.30;7.93;;;1.40;1.00;;;;;;4922903;29;20697;-96
2023/03/01 03:26:13;;;;;;;8.67;7.50;;;1.40;1.00;;;;;;4920074;29;20178;-96
2023/03/01 03:28:39;;;;;;;10.03;8.00;;;1.40;1.00;;;;;;4919893;29;20578;-96
2023/03/01 03:31:09;;;;;;;8.67;7.10;;;1.30;1.00;;;;;;4919235;29;20259;-96
2023/03/01 03:33:35;;;;;;;8.30;7.37;;;1.30;1.00;;;;;;4921163;29;20173;-96
2023/03/01 03:36:01;;;;;;;10.17;7.97;;;1.30;1.00;;;;;;4921153;29;20229;-96
2023/03/01 03:38:26;;;;;;;10.27;8.20;;;1.20;1.00;;;;;;4925818;29;20177;-96
2023/03/01 03:41:02;;;;;;;10.50;7.63;;;1.20;1.00;;;;;;4933406;29;20173;-94
2023/03/01 03:43:28;;;;;;;13.47;8.20;;;1.30;1.00;;;;;;4946501;29;20189;-88
2023/03/01 03:45:54;;;;;;;11.10;7.40;;;1.20;1.00;;;;;;4948073;28;20230;-88
2023/03/01 03:48:20;;;;;;;9.63;7.90;;;1.20;1.00;;;;;;4936682;29;20213;-96
2023/03/01 03:50:55;;;;;;;13.60;8.10;;;1.10;1.00;;;;;;4941630;29;20245;-90
2023/03/01 03:53:23;;;;;;;10.30;7.70;;;1.10;1.00;;;;;;4939650;29;20188;-90
2023/03/01 03:56:25;;;;;;;10.93;8.50;;;1.10;1.00;;;;;;4923943;29;20170;-95
2023/03/01 03:58:54;;;;;;;11.43;7.53;;;1.10;1.00;;;;;;4921595;29;20160;-94
2023/03/01 04:01:20;;;;;;;9.63;7.90;;;1.00;1.00;;;;;;4918743;29;20193;-94
2023/03/01 04:03:54;;;;;;;9.73;7.37;;;1.00;1.00;;;;;;4920542;29;20661;-95
2023/03/01 04:06:22;;;;;;;10.33;7.47;;;0.90;1.00;;;;;;4914727;29;20555;-95
2023/03/01 04:08:50;;;;;;;8.87;7.47;;;1.00;1.00;;;;;;4919584;29;20550;-96
2023/03/01 04:11:28;;;;;;;11.20;7.97;;;1.00;1.00;;;;;;4923266;29;20164;-90
2023/03/01 04:13:56;;;;;;;9.93;8.63;;;1.00;1.00;;;;;;4933455;29;20182;-92
2023/03/01 04:16:23;;;;;;;10.40;8.40;;;1.00;1.00;;;;;;4931938;29;20197;-90
2023/03/01 04:18:49;;;;;;;13.50;8.97;;;0.90;1.00;;;;;;4939264;29;20161;-87
2023/03/01 04:21:15;;;;;;;11.80;8.20;;;0.90;1.00;;;;;;4939825;29;20180;-88
2023/03/01 04:24:12;;;;;;;13.13;8.50;;;0.90;1.00;;;;;;4933183;29;20197;-96
2023/03/01 04:26:41;;;;;;;13.93;8.77;;;0.90;1.00;;;;;;4921913;29;20185;-95
2023/03/01 04:29:08;;;;;;;11.13;8.43;;;1.00;1.00;;;;;;4920396;29;20205;-95
2023/03/01 04:31:35;;;;;;;12.53;8.30;;;1.00;1.00;;;;;;4921699;29;20694;-92
2023/03/01 04:34:01;;;;;;;11.63;8.50;;;0.90;1.00;;;;;;4940489;29;20170;-86
2023/03/01 04:36:28;;;;;;;11.07;9.03;;;0.90;1.00;;;;;;4943154;29;20184;-84
2023/03/01 04:38:56;;;;;;;10.73;8.97;;;1.00;1.00;;;;;;4955338;29;20177;-96
2023/03/01 04:41:24;;;;;;;11.23;8.67;;;0.90;1.00;;;;;;4942816;29;20217;-95
2023/03/01 04:43:54;;;;;;;13.13;8.63;;;0.90;1.00;;;;;;4938728;29;20644;-96
2023/03/01 04:46:21;;;;;;;11.10;7.80;;;1.00;1.00;;;;;;4939909;29;20172;-90
2023/03/01 04:48:47;;;;;;;11.17;8.37;;;0.90;1.00;;;;;;4939800;29;20808;-95
2023/03/01 04:51:15;;;;;;;13.67;9.10;;;0.80;1.00;;;;;;4941711;29;20177;-95
2023/03/01 04:53:42;;;;;;;10.93;8.43;;;0.80;1.00;;;;;;4946436;29;20261;-95
2023/03/01 04:56:08;;;;;;;11.83;9.50;;;0.80;1.00;;;;;;4929006;29;20311;-93
2023/03/01 04:58:33;;;;;;;14.53;10.00;;;0.80;1.00;;;;;;4924176;29;20185;-95
2023/03/01 05:01:00;;;;;;;12.23;8.33;;;0.70;1.00;;;;;;4922467;29;20590;-95
2023/03/01 05:03:26;;;;;;;11.13;8.33;;;0.70;1.00;;;;;;4919298;29;20185;-96
2023/03/01 05:05:52;;;;;;;11.33;8.53;;;0.60;1.00;;;;;;4918824;29;20178;-95
2023/03/01 05:08:18;;;;;;;10.13;8.57;;;0.70;1.00;;;;;;4904108;29;20214;-96
2023/03/01 05:10:52;;;;;;;10.93;8.30;;;0.60;1.00;;;;;;4899922;29;20647;-94
2023/03/01 05:13:23;;;;;;;12.93;8.37;;;0.60;1.00;;;;;;4899624;29;20194;-95
2023/03/01 05:15:57;;;;;;;11.17;8.17;;;0.70;1.00;;;;;;4899228;29;20567;-96
2023/03/01 05:18:25;;;;;;;9.87;8.30;;;0.60;1.00;;;;;;4899407;29;20181;-96
2023/03/01 05:20:57;;;;;;;12.23;7.67;;;0.60;1.00;;;;;;4899683;29;20190;-93
2023/03/01 05:23:24;;;;;;;12.83;7.73;;;0.50;1.00;;;;;;4899119;29;20687;-95
2023/03/01 05:25:52;;;;;;;11.07;8.53;;;0.60;1.00;;;;;;4916308;29;20209;-93
2023/03/01 05:28:19;;;;;;;12.13;9.00;;;0.60;1.00;;;;;;4932206;29;20201;-94
2023/03/01 05:30:51;;;;;;;9.97;8.13;;;0.50;1.00;;;;;;4927190;29;20189;-95
2023/03/01 05:33:18;;;;;;;16.40;9.57;;;0.50;1.00;;;;;;4937683;29;20193;-91
2023/03/01 05:35:45;;;;;;;11.40;8.47;;;0.50;1.00;;;;;;4942021;29;20182;-93
2023/03/01 05:38:15;;;;;;;10.60;7.77;;;0.50;1.00;;;;;;4941591;29;20185;-91
2023/03/01 05:40:48;;;;;;;11.33;8.73;;;0.50;1.00;;;;;;4937268;29;20271;-90
2023/03/01 05:43:46;;;;;;;12.07;8.47;;;0.50;1.00;;;;;;4929176;29;20227;-96
2023/03/01 05:46:25;;;;;;;13.90;8.10;;;0.50;1.00;;;;;;4943320;29;20168;-95
2023/03/01 05:48:50;;;;;;;12.10;8.63;;;0.50;1.00;;;;;;4944833;29;20307;-93
2023/03/01 05:51:17;;;;;;;10.57;7.83;;;0.50;1.00;;;;;;4950111;29;20185;-94
2023/03/01 05:53:43;;;;;;;14.23;8.90;;;0.40;1.00;;;;;;4931327;29;20174;-92
2023/03/01 05:56:09;;;;;;;13.17;8.60;;;0.40;1.00;;;;;;4925097;29;20205;-92
2023/03/01 05:58:35;;;;;;;11.73;8.37;;;0.40;1.00;;;;;;4927653;29;20212;-96
2023/03/01 06:01:04;;;;;;;12.47;8.83;;;0.40;1.00;;;;;;4923180;29;20237;-93
2023/03/01 06:03:30;;;;;;;12.97;8.37;;;0.30;1.00;;;;;;4923239;29;20170;-92
2023/03/01 06:05:57;;;;;;;13.33;8.67;;;0.30;1.00;;;;;;4923028;29;20193;-96
2023/03/01 06:08:24;;;;;;;9.73;7.43;;;0.30;1.00;;;;;;4906239;29;20301;-94
2023/03/01 06:10:49;;;;;;;12.87;8.43;;;0.30;1.00;;;;;;4902994;29;20179;-93
2023/03/01 06:13:15;;;;;;;10.80;8.53;;;0.30;1.00;;;;;;4903775;29;20179;-96
2023/03/01 06:15:41;;;;;;;13.30;8.77;;;0.30;1.00;;;;;;4903975;29;20647;-91
2023/03/01 06:18:11;;;;;;;10.83;8.50;;;0.20;1.00;;;;;;4903694;29;20191;-90
2023/03/01 06:20:38;;;;;;;13.93;8.00;;;0.30;1.00;;;;;;4904416;29;20175;-96
2023/03/01 06:23:04;;;;;;;11.77;8.20;;;0.30;1.00;;;;;;4905747;29;20185;-95
2023/03/01 06:25:29;;;;;;;12.17;7.87;;;0.20;1.00;;;;;;4922795;29;20198;-95
2023/03/01 06:27:55;;;;;;;8.73;6.87;;;0.20;1.00;;;;;;4928506;29;20201;-95
2023/03/01 06:30:26;;;;;;;11.53;7.73;;;0.20;1.00;;;;;;4941810;29;20566;-95
2023/03/01 06:32:52;;;;;;;10.57;7.67;;;0.10;1.00;;;;;;4913480;29;20182;-95
2023/03/01 06:35:19;;;;;;;12.23;8.57;;;0.10;1.00;;;;;;4922003;29;20189;-91
2023/03/01 06:37:46;;;;;;;11.10;8.27;;;0.10;1.00;;;;;;4936946;29;20183;-90
2023/03/01 06:40:13;;;;;;;11.13;8.40;;;0.10;1.00;;;;;;4952258;29;20181;-94
2023/03/01 06:42:43;;;;;;;13.33;8.53;;;0.10;1.00;;;;;;4945679;29;20180;-93
2023/03/01 06:45:22;;;;;;;13.30;8.87;;;0.00;1.00;;;;;;4912366;29;20194;-89
2023/03/01 06:47:48;;;;;;;11.00;7.83;;;0.10;1.00;;;;;;4919482;29;20209;-84
2023/03/01 06:50:19;;;;;;;11.87;8.43;;;0.10;1.00;;;;;;4913898;29;20171;-86
2023/03/01 06:52:45;;;;;;;13.10;9.00;;;0.10;1.00;;;;;;4909238;29;20188;-90
2023/03/01 06:55:13;;;;;;;15.30;8.77;;;0.00;1.00;;;;;;4929830;29;20197;-86
2023/03/01 06:57:40;;;;;;;13.20;8.63;;;0.10;1.00;;;;;;4932358;29;20189;-83
2023/03/01 07:00:19;;;;;;;15.07;8.00;;;0.10;1.00;;;;;;4954610;29;20236;-85
2023/03/01 07:02:59;;;;;;;12.23;8.33;;;0.20;1.00;;;;;;4946718;29;20165;-87
2023/03/01 07:05:37;;;;;;;15.00;8.33;;;0.10;1.00;;;;;;4940305;29;20176;-86
2023/03/01 07:08:03;;;;;;;13.57;9.00;;;0.20;1.00;;;;;;4938573;29;20564;-88
2023/03/01 07:10:29;;;;;;;11.00;7.37;;;0.20;1.00;;;;;;4937538;29;20173;-88
2023/03/01 07:12:57;;;;;;;9.30;7.10;;;0.30;1.00;;;;;;4921670;29;20300;-86
2023/03/01 07:15:23;;;;;;;10.53;8.07;;;0.20;1.00;;;;;;4924254;29;20177;-85
2023/03/01 07:17:50;;;;;;;13.43;7.87;;;0.10;1.00;;;;;;4923854;29;20177;-85
2023/03/01 07:20:17;;;;;;;12.70;7.63;;;0.10;1.00;;;;;;4942185;29;20181;-88
2023/03/01 07:22:46;;;;;;;12.90;9.10;;;0.10;1.00;;;;;;4911073;29;20182;-86
2023/03/01 07:25:15;;;;;;;14.47;8.40;;;0.20;1.00;;;;;;4899938;29;20239;-86
2023/03/01 07:27:49;;;;;;;13.00;8.33;;;0.10;1.00;;;;;;4916569;29;20209;-86
2023/03/01 07:30:15;;;;;;;23.00;8.33;;;0.20;1.00;;;;;;4935558;29;20228;-86
2023/03/01 07:32:45;;;;;;;10.20;8.33;;;0.20;1.00;;;;;;4939228;29;20174;-92
2023/03/01 07:35:11;;;;;;;14.10;8.30;;;0.20;1.00;;;;;;4937553;29;20184;-95
2023/03/01 07:37:37;;;;;;;16.70;9.40;;;0.30;1.00;;;;;;4946956;29;20161;-91
2023/03/01 07:40:07;;;;;;;11.77;8.67;;;0.30;1.00;;;;;;4954212;29;20314;-96
2023/03/01 07:42:32;;;;;;;10.17;7.83;;;0.10;1.00;;;;;;4931392;29;20201;-95
2023/03/01 07:44:59;;;;;;;14.17;8.73;;;0.40;1.00;;;;;;4920266;29;20192;-94
2023/03/01 07:47:25;;;;;;;12.80;8.67;;;0.40;1.00;;;;;;4923564;29;20178;-95
2023/03/01 07:49:52;;;;;;;12.17;7.23;;;0.50;1.00;;;;;;4921817;29;20240;-95
2023/03/01 07:52:18;;;;;;;9.63;8.20;;;0.50;1.00;;;;;;4925222;29;20690;-94
2023/03/01 07:54:44;;;;;;;12.67;8.17;;;0.50;1.00;;;;;;4935981;29;20189;-93
2023/03/01 07:57:13;;;;;;;15.77;8.70;;;0.50;1.00;;;;;;4939602;29;20186;-95
2023/03/01 07:59:41;;;;;;;13.57;9.10;;;0.40;1.00;;;;;;4937601;29;20154;-93
2023/03/01 08:02:20;;;;;;;13.73;9.77;;;0.60;1.00;;;;;;4944570;28;20220;-91
2023/03/01 08:08:12;;;;;;;15.50;8.77;;;0.70;1.00;;;;;;4934980;29;20252;-94
2023/03/01 08:10:37;;;;;;;13.80;9.90;;;0.80;1.00;;;;;;4921516;29;20245;-94
2023/03/01 08:13:05;;;;;;;15.63;9.50;;;0.90;1.00;;;;;;4924030;29;20212;-93
2023/03/01 08:15:31;;;;;;;12.73;8.60;;;0.90;1.00;;;;;;4924132;29;20276;-93
2023/03/01 08:17:57;;;;;;;13.73;9.53;;;1.00;1.00;;;;;;4922097;29;20618;-94
2023/03/01 08:20:23;;;;;;;14.20;9.87;;;1.00;1.00;;;;;;4922164;29;20256;-93
2023/03/01 08:22:49;;;;;;;12.40;8.93;;;1.10;1.00;;;;;;4924828;29;20205;-93
2023/03/01 08:25:14;;;;;;;12.23;9.10;;;1.20;1.00;;;;;;4910983;29;20197;-94
2023/03/01 08:27:40;;;;;;;15.73;9.93;;;1.20;1.00;;;;;;4922750;29;20213;-92
2023/03/01 08:30:06;;;;;;;15.63;9.43;;;1.30;1.00;;;;;;4924972;29;20189;-94
2023/03/01 08:32:38;;;;;;;13.30;8.93;;;1.50;1.00;;;;;;4929104;29;20165;-92
2023/03/01 08:35:07;;;;;;;11.90;8.57;;;1.60;1.00;;;;;;4912098;29;20272;-94
2023/03/01 08:37:33;;;;;;;11.10;9.50;;;1.70;1.00;;;;;;4915531;29;20158;-88
2023/03/01 08:40:00;;;;;;;15.00;9.27;;;1.70;1.00;;;;;;4923275;29;20211;-94
2023/03/01 08:42:27;;;;;;;14.07;10.03;;;1.80;1.00;;;;;;4921365;29;20170;-95
2023/03/01 08:44:54;;;;;;;11.90;8.70;;;1.90;1.00;;;;;;4919210;29;20183;-95
2023/03/01 08:47:20;;;;;;;13.67;9.20;;;2.10;1.00;;;;;;4920384;29;20186;-94
2023/03/01 08:49:45;;;;;;;12.27;9.87;;;2.10;1.00;;;;;;4934584;29;20196;-95
2023/03/01 08:52:19;;;;;;;13.33;8.90;;;2.30;1.00;;;;;;4942255;29;20697;-94
2023/03/01 08:54:46;;;;;;;14.67;8.70;;;2.20;1.00;;;;;;4895727;29;20195;-94
2023/03/01 08:57:13;;;;;;;15.50;8.97;;;2.20;1.00;;;;;;4904715;29;20179;-93
2023/03/01 08:59:41;;;;;;;13.07;9.47;;;2.20;1.00;;;;;;4907378;29;20167;-95
2023/03/01 09:02:12;;;;;;;14.37;8.97;;;2.30;1.00;;;;;;4906414;29;20186;-94
2023/03/01 09:04:38;;;;;;;12.27;9.13;;;2.60;99.90;;;;;;4916050;29;20238;-93
2023/03/01 09:07:04;;;;;;;12.00;8.80;;;2.40;99.90;;;;;;4921371;29;20190;-91
2023/03/01 09:09:31;;;;;;;13.13;8.93;;;2.50;99.90;;;;;;4929224;29;20515;-95
2023/03/01 09:12:00;;;;;;;14.37;9.80;;;2.80;99.90;;;;;;4928801;29;20230;-93
2023/03/01 09:14:29;;;;;;;14.20;9.07;;;2.70;99.90;;;;;;4920874;29;20233;-88
2023/03/01 09:16:58;;;;;;;12.77;8.33;;;2.70;99.90;;;;;;4941754;29;20178;-94
2023/03/01 09:19:24;;;;;;;12.60;8.73;;;2.70;99.90;;;;;;4943047;29;20208;-88
2023/03/01 09:21:53;;;;;;;12.67;8.70;;;2.70;99.90;;;;;;4943655;29;20166;-90
2023/03/01 09:24:24;;;;;;;12.20;8.83;;;2.80;99.90;;;;;;4948196;29;20247;-90
2023/03/01 09:26:55;;;;;;;14.03;9.60;;;2.90;99.90;;;;;;4949056;29;20174;-88
2023/03/01 09:29:27;;;;;;;22.20;10.50;;;2.90;99.90;;;;;;4943680;29;20202;-85
2023/03/01 09:31:54;;;;;;;17.30;9.30;;;3.00;99.90;;;;;;4920406;29;20237;-87
2023/03/01 09:34:23;;;;;;;13.17;9.90;;;3.20;90.00;;;;;;4906172;29;20214;-89
2023/03/01 09:36:52;;;;;;;12.37;9.33;;;3.30;1.00;;;;;;4920247;29;20250;-92
2023/03/01 09:39:20;;;;;;;14.90;8.60;;;3.30;1.00;;;;;;4921899;29;20181;-94
2023/03/01 09:41:52;;;;;;;11.73;9.20;;;3.20;99.90;;;;;;4923644;29;20178;-92
2023/03/01 09:44:29;;;;;;;13.73;9.77;;;3.20;99.90;;;;;;4912484;29;20179;-93
2023/03/01 09:46:57;;;;;;;12.70;9.27;;;3.20;99.90;;;;;;4908162;29;20190;-95
2023/03/01 09:49:31;;;;;;;14.07;9.60;;;3.40;99.90;;;;;;4931815;29;20197;-95
2023/03/01 09:52:27;;;;;;;16.43;10.20;;;3.50;1.00;;;;;;4943418;29;20216;-94
2023/03/01 09:54:56;;;;;;;10.10;8.97;;;3.50;1.00;;;;;;4968134;28;20224;-88
2023/03/01 09:58:06;;;;;;;12.20;7.00;;;3.60;1.00;;;;;;4961971;28;20166;-88
2023/03/01 10:00:47;;;;;;;11.97;9.77;;;3.70;99.90;;;;;;4978168;28;20173;-89
2023/03/01 10:03:36;;;;;;;13.77;9.93;;;3.70;99.90;;;;;;4943680;29;20196;-90
2023/03/01 10:06:23;;;;;;;14.70;10.13;;;3.80;99.90;;;;;;4954674;29;20188;-92
2023/03/01 10:09:16;;;;;;;13.30;9.63;;;3.90;1.00;;;;;;4945728;29;20211;-92
2023/03/01 10:11:52;;;;;;;14.10;8.90;;;3.80;1.00;;;;;;4945846;29;20169;-94
2023/03/01 10:14:36;;;;;;;11.73;8.87;;;3.80;1.00;;;;;;4934413;29;20190;-90
2023/03/01 10:17:20;;;;;;;13.40;10.03;;;3.70;99.90;;;;;;4923757;29;20181;-93
2023/03/01 10:19:47;;;;;;;13.47;9.70;;;3.70;42.20;;;;;;4915745;29;20186;-93
2023/03/01 10:22:28;;;;;;;17.80;11.10;;;3.70;1.00;;;;;;4922368;29;20194;-90
2023/03/01 10:24:56;;;;;;;11.10;8.20;;;3.90;1.00;;;;;;4941508;28;20173;-91
2023/03/01 10:27:25;;;;;;;13.50;9.10;;;3.90;1.00;;;;;;4959896;28;20185;-92
2023/03/01 10:30:12;;;;;;;12.70;8.80;;;4.00;1.00;;;;;;4928044;29;20197;-90
2023/03/01 10:32:41;;;;;;;12.70;8.57;;;4.10;1.00;;;;;;4923742;29;20630;-89
2023/03/01 10:35:25;;;;;;;14.43;8.97;;;4.10;99.90;;;;;;4922472;29;20265;-92
2023/03/01 10:38:10;;;;;;;13.57;8.60;;;4.10;1.00;;;;;;4928418;29;20161;-93
2023/03/01 10:40:50;;;;;;;12.57;9.00;;;4.10;1.00;;;;;;4913505;29;20193;-94
2023/03/01 10:43:17;;;;;;;12.77;9.73;;;4.30;1.00;;;;;;4918760;29;20178;-90
2023/03/01 10:45:43;;;;;;;12.17;8.37;;;4.30;99.90;;;;;;4916470;29;20192;-93
2023/03/01 10:48:19;;;;;;;13.70;9.40;;;4.40;1.00;;;;;;4915477;29;20261;-91
2023/03/01 10:50:48;;;;;;;12.60;9.03;;;4.60;1.00;;;;;;4924643;29;20653;-94
2023/03/01 10:53:28;;;;;;;12.90;9.03;;;4.60;16.90;;;;;;4909618;29;20526;-93
2023/03/01 10:56:04;;;;;;;10.63;8.43;;;4.70;99.90;;;;;;4911068;29;20214;-88
2023/03/01 10:58:35;;;;;;;11.50;7.80;;;4.70;1.00;;;;;;4921439;29;20170;-88
2023/03/01 11:01:17;;;;;;;10.60;8.60;;;4.70;1.00;;;;;;4907299;29;20178;-92
2023/03/01 11:03:43;;;;;;;11.37;8.97;;;4.80;1.00;;;;;;4929580;29;20186;-88
2023/03/01 11:06:12;;;;;;;14.60;8.60;;;5.10;1.00;;;;;;4925270;29;20213;-92
2023/03/01 11:08:49;;;;;;;11.00;8.53;;;5.00;1.00;;;;;;4909611;29;20216;-86
2023/03/01 11:11:38;;;;;;;12.43;8.27;;;5.10;1.00;;;;;;4889617;29;20182;-87
2023/03/01 11:14:22;;;;;;;12.63;7.27;;;5.20;99.90;;;;;;4920057;29;20178;-85
2023/03/01 11:16:57;;;;;;;11.43;8.00;;;5.00;33.10;;;;;;4920465;29;20170;-85
2023/03/01 11:19:23;;;;;;;11.83;9.07;;;5.00;99.90;;;;;;4939866;29;20267;-90
2023/03/01 11:22:19;;;;;;;11.80;8.33;;;5.00;99.90;;;;;;4942919;29;20208;-89
2023/03/01 11:24:51;;;;;;;11.23;8.77;;;5.20;99.90;;;;;;4950237;29;20252;-85
2023/03/01 11:27:22;;;;;;;10.63;7.70;;;5.40;1.00;;;;;;4919708;29;20194;-87
2023/03/01 11:30:06;;;;;;;13.20;9.87;;;5.60;1.00;;;;;;4919905;29;20170;-89
2023/03/01 11:33:11;;;;;;;10.90;7.87;;;5.50;1.00;;;;;;4919135;29;20205;-89
2023/03/01 11:35:46;;;;;;;11.67;8.33;;;5.40;99.90;;;;;;4911758;29;20198;-90
2023/03/01 11:38:23;;;;;;;11.53;8.67;;;5.40;1.00;;;;;;4920426;29;20189;-90
2023/03/01 11:41:12;;;;;;;11.57;8.30;;;5.30;1.00;;;;;;4955198;29;20177;-93
2023/03/01 11:44:05;;;;;;;11.53;9.07;;;5.40;1.00;;;;;;4940530;29;20173;-90
2023/03/01 11:47:11;;;;;;;13.03;8.33;;;5.40;11.00;;;;;;4937414;29;20186;-91
2023/03/01 11:49:50;;;;;;;11.60;8.30;;;5.50;1.00;;;;;;4922204;29;20269;-91
2023/03/01 11:52:33;;;;;;;10.10;8.73;;;5.60;1.00;;;;;;4937707;29;20177;-89
2023/03/01 11:55:07;;;;;;;11.63;8.90;;;5.60;99.90;;;;;;4918414;29;20194;-85
2023/03/01 11:58:12;;;;;;;12.90;8.70;;;5.80;1.00;;;;;;4903232;29;20186;-92
2023/03/01 12:01:03;;;;;;;13.03;8.30;;;5.80;99.90;;;;;;4907237;29;20174;-92
2023/03/01 12:03:55;;;;;;;11.50;8.33;;;5.80;99.90;;;;;;4906930;29;20177;-93
2023/03/01 12:06:47;;;;;;;8.90;7.77;;;5.70;99.90;;;;;;4906943;29;20179;-91
2023/03/01 12:09:44;;;;;;;10.87;8.40;;;5.80;99.90;;;;;;4915803;29;20233;-87
2023/03/01 12:12:25;;;;;;;10.30;8.27;;;6.00;99.90;;;;;;4924465;29;20258;-87
2023/03/01 12:15:27;;;;;;;10.57;8.77;;;6.10;99.90;;;;;;4917221;29;20206;-85
2023/03/01 12:18:13;;;;;;;12.73;8.67;;;6.10;1.00;;;;;;4914281;29;20173;-86
2023/03/01 12:24:07;;;;;;;11.33;7.87;;;6.10;1.00;;;;;;4908339;29;20182;-91
2023/03/01 12:26:48;;;;;;;12.90;8.67;;;6.20;1.00;;;;;;4929998;29;20268;-88
2023/03/01 12:29:37;;;;;;;11.60;7.90;;;6.20;1.00;;;;;;4923685;29;20205;-88
2023/03/01 12:32:21;;;;;;;11.33;7.57;;;6.30;99.90;;;;;;4941378;29;20176;-88
2023/03/01 12:35:12;;;;;;;10.43;7.20;;;6.20;99.90;;;;;;4929449;29;20188;-87
2023/03/01 12:37:46;;;;;;;9.90;7.87;;;6.20;99.90;;;;;;4924143;29;20181;-84
2023/03/01 12:40:47;;;;;;;11.47;7.57;;;6.20;99.90;;;;;;4923320;29;20607;-90
2023/03/01 12:43:33;;;;;;;12.37;8.10;;;6.30;99.90;;;;;;4922984;29;20181;-90
2023/03/01 12:46:22;;;;;;;11.13;6.60;;;6.30;99.90;;;;;;4919082;29;20185;-92
2023/03/01 12:49:06;;;;;;;8.40;6.83;;;6.30;99.90;;;;;;4924173;29;20678;-90
2023/03/01 12:51:35;;;;;;;11.77;7.63;;;6.40;77.40;;;;;;4924884;29;20158;-87
2023/03/01 12:54:15;;;;;;;10.23;7.10;;;6.40;42.70;;;;;;4916251;29;20181;-85
2023/03/01 12:56:42;;;;;;;10.33;7.30;;;6.40;1.00;;;;;;4933519;29;20278;-89
2023/03/01 12:59:26;;;;;;;9.73;7.30;;;6.50;10.90;;;;;;4934331;29;20315;-89
2023/03/01 13:02:21;;;;;;;11.27;6.47;;;6.60;14.10;;;;;;4910468;29;20217;-90
2023/03/01 13:05:15;;;;;;;10.10;7.90;;;6.60;1.00;;;;;;4923629;29;20158;-87
2023/03/01 13:08:06;;;;;;;10.57;7.57;;;6.70;1.00;;;;;;4924185;29;20210;-90
2023/03/01 13:10:40;;;;;;;11.00;7.17;;;6.70;1.00;;;;;;4934872;29;20185;-92
2023/03/01 13:13:19;;;;;;;9.40;6.70;;;6.60;1.00;;;;;;4948179;29;20195;-88
2023/03/01 13:15:51;;;;;;;14.10;8.07;;;6.70;1.00;;;;;;4947642;29;20185;-91
2023/03/01 13:18:16;;;;;;;9.67;7.10;;;6.70;1.00;;;;;;4917506;29;20166;-90
2023/03/01 13:20:42;;;;;;;11.17;7.77;;;6.90;1.00;;;;;;4937266;29;20184;-92
2023/03/01 13:23:36;;;;;;;9.80;7.63;;;6.80;1.00;;;;;;4937131;29;20615;-93
2023/03/01 13:26:05;;;;;;;11.70;8.37;;;6.90;1.00;;;;;;4939042;29;20193;-94
2023/03/01 13:28:55;;;;;;;10.83;7.80;;;6.80;1.00;;;;;;4933291;29;20217;-93
2023/03/01 13:31:29;;;;;;;9.60;7.10;;;6.80;1.00;;;;;;4926947;29;20299;-85
2023/03/01 13:34:09;;;;;;;12.00;7.57;;;6.90;1.00;;;;;;4911333;29;20173;-90